Melrose, IA (52569)

11:28 PM CDT on September 01, 2014 (GMT -0500)
farm | Change Station
CLOSE
Current Station
Personal Weather Station
Location: Chariton, IA
Elevation: 971 ft
Nearby Weather Stations

Elev 971 ft 40.93 °N, 93.24 °W | Updated 7 seconds ago

Partly Cloudy
Partly Cloudy
66.0 °F
Feels Like 66.0 °F
N
0.0
Wind Variable Wind from WSW
Gusts 0.0 mph

Today
High -- | Low -- °F
--% Chance of Precip.
Yesterday
High -- | Low -- °F
Precip. -- in
6:38 AM 7:44 PM
Waxing Crescent, 47% visible
Pressure 29.88 in
Visibility 10.0 miles
Clouds Few 12000 ft
Mostly Cloudy 14000 ft
Mostly Cloudy 16000 ft
Dew Point 65 °F
Humidity 98%
Rainfall 0.38 in
Snow Depth Not available.
UV 0 out of 12
Pollen 3.90 out of 12
Air Quality Not available.
Flu Activity Not available.
METAR KCNC 020355Z AUTO 00000KT 10SM FEW120 BKN140 BKN160 19/19 A2988 RMK AO2

More Conditions Fewer Conditions

Pressure 29.88 in
Visibility 10.0 miles
Clouds Few 12000 ft
Mostly Cloudy 14000 ft
Mostly Cloudy 16000 ft
Dew Point 65 °F
Humidity 98%
Rainfall 0.38 in
Snow Depth Not available.
UV 0 out of 12
Pollen 3.90 out of 12
Air Quality Not available.
Flu Activity Not available.
METAR KCNC 020355Z AUTO 00000KT 10SM FEW120 BKN140 BKN160 19/19 A2988 RMK AO2

More Conditions Fewer Conditions

10-Day Weather Forecast

Almanac

Astronomy

Sep. 01, 2014 Rise Set
Actual Time 6:38 AM CDT 7:44 PM CDT
Civil Twilight 6:10 AM CDT 8:12 PM CDT
Nautical Twilight 5:37 AM CDT 8:46 PM CDT
Astronomical Twilight 5:01 AM CDT 9:21 PM CDT
Moon 1:28 PM CDT (9/1) 11:43 PM CDT (9/1)
Length of Visible Light 14h 02m
Length of Day
13h 05m
Tomorrow will be 2m 37s shorter.
Waxing Crescent, 47% of the Moon is Illuminated
Sep 2
Waxing Crescent
Sep 2
First Quarter
Sep 8
Full
Sep 15
Last Quarter
Sep 24
New

Today's Extremes

State Highs State Lows

Community

WunderPhotos

Upload Photos

1,749,560 photos uploaded!

WunderBlogs® & News

Nearby

Snow Depth

Station Depth Elevation
No new snow has been reported.

Earthquake Activity

City Distance Mag. Time & Date
No recent earthquake activity has been reported nearby.
Minimum magnitude displayed is 2.5.

Coastal Water Temperatures

Place Temperature
No Stations Reporting

Nearby Weather Stations